US-0124 weather

Bachman Farm Ultralightport
Goochland Court House, Virginia, United States

Public forecast

Using degrees Fahrenheit for public forecast. Weather courtesy of forecast.io.

METAR (pilot weather report)

Closest report is Louisa County Airport/Freeman Field, 16.6 nm (30.8 km) NNW. Retrieved 2019/07/19 07:35 UTC (0 seconds ago):

KLKU 190735Z AUTO 00000KT 7SM BR CLR 21/21 A2997 RMK AO2 T02130211

TAF (pilot weather forecast)

Closest forecast is Richmond International Airport, 29.3 nm (54.3 km) ESE. Retrieved 2019/07/19 06:57 UTC (6 minutes ago):

TAF KRIC 190553Z 1906/2006 22004KT P6SM FEW120 FM191600 VRB03KT P6SM FEW045 FM191800 15004KT P6SM SCT050 FM192000 19007KT P6SM SCT050 FM200000 20004KT P6SM FEW100